Time;durP1;ratioP1;P1;durP2;ratioP2;P2;SDS_P1;SDS_P2;PMS_P1;PMS_P2;Temp;Humidity;BMP_temperature;BMP_pressure;BME280_temperature;BME280_humidity;BME280_pressure;Samples;Min_cycle;Max_cycle;Signal;HPM_P1;HPM_P2
2022/09/05 00:02:00;;;;;;;2.38;0.90;;;19.00;96.00;;;;;;4937641;29;20047;-84
2022/09/05 00:05:10;;;;;;;1.92;1.00;;;18.90;96.10;;;;;;4946617;28;20065;-84
2022/09/05 00:08:00;;;;;;;1.55;0.90;;;18.90;96.20;;;;;;4891327;29;20489;-84
2022/09/05 00:10:47;;;;;;;1.25;0.90;;;18.80;96.50;;;;;;4896767;29;20055;-84
2022/09/05 00:13:26;;;;;;;1.10;0.80;;;18.80;96.60;;;;;;4896104;29;20060;-84
2022/09/05 00:16:18;;;;;;;2.17;0.90;;;18.70;96.90;;;;;;4896462;29;20044;-84
2022/09/05 00:19:14;;;;;;;2.00;0.77;;;18.70;96.90;;;;;;4889229;29;20084;-84
2022/09/05 00:21:57;;;;;;;0.80;0.70;;;18.60;97.10;;;;;;4875086;29;20112;-84
2022/09/05 00:24:47;;;;;;;1.63;1.13;;;18.60;97.10;;;;;;4887650;29;20044;-84
2022/09/05 00:27:25;;;;;;;1.10;0.80;;;18.50;97.20;;;;;;4903455;29;20161;-83
2022/09/05 00:29:56;;;;;;;1.35;0.90;;;18.70;97.30;;;;;;4900487;28;20059;-84
2022/09/05 00:32:46;;;;;;;1.25;0.90;;;18.40;97.50;;;;;;4971479;28;20682;-84
2022/09/05 00:35:37;;;;;;;1.30;0.85;;;18.40;97.50;;;;;;4970058;28;20446;-84
2022/09/05 00:38:16;;;;;;;0.98;0.82;;;18.30;97.20;;;;;;5001076;28;20114;-83
2022/09/05 00:40:47;;;;;;;0.88;0.70;;;18.30;97.40;;;;;;5046088;28;20498;-83
2022/09/05 00:43:21;;;;;;;1.13;0.70;;;18.30;97.50;;;;;;5051931;28;20037;-84
2022/09/05 00:46:06;;;;;;;1.25;0.60;;;18.20;97.70;;;;;;5052627;28;20072;-83
2022/09/05 00:48:55;;;;;;;1.00;0.70;;;18.20;98.10;;;;;;5052091;28;20041;-83
2022/09/05 00:51:36;;;;;;;1.38;0.90;;;18.20;98.00;;;;;;5052232;28;20072;-83
2022/09/05 00:54:23;;;;;;;0.85;0.65;;;18.10;98.00;;;;;;5052494;28;20044;-84
2022/09/05 00:57:29;;;;;;;1.52;0.80;;;18.10;97.80;;;;;;5046172;28;20042;-83
2022/09/05 01:00:21;;;;;;;1.27;0.80;;;18.00;98.20;;;;;;5029640;28;20051;-84
2022/09/05 01:03:19;;;;;;;0.80;0.65;;;18.00;98.20;;;;;;5050529;28;20049;-84
2022/09/05 01:05:45;;;;;;;1.08;0.70;;;18.00;97.90;;;;;;5030590;28;20029;-84
2022/09/05 01:08:26;;;;;;;1.13;0.88;;;17.90;98.40;;;;;;5052346;28;20496;-84
2022/09/05 01:11:35;;;;;;;1.17;0.80;;;17.90;98.60;;;;;;5046096;28;20102;-84
2022/09/05 01:14:10;;;;;;;2.22;0.90;;;17.80;98.70;;;;;;5046821;28;20091;-83
2022/09/05 01:16:54;;;;;;;0.98;0.63;;;17.80;98.80;;;;;;5051913;28;20045;-84
2022/09/05 01:19:57;;;;;;;0.90;0.70;;;17.80;98.90;;;;;;5051936;28;20041;-83
2022/09/05 01:22:38;;;;;;;2.13;0.70;;;17.70;98.90;;;;;;5035493;28;20063;-84
2022/09/05 01:25:27;;;;;;;1.05;0.93;;;17.70;99.00;;;;;;5046543;28;20048;-83
2022/09/05 01:28:14;;;;;;;1.60;0.80;;;17.70;99.10;;;;;;5043910;28;20124;-83
2022/09/05 01:30:44;;;;;;;1.38;0.95;;;17.60;99.20;;;;;;5036053;28;20059;-83
2022/09/05 01:33:36;;;;;;;1.60;1.00;;;17.60;99.60;;;;;;5051754;28;20041;-83
2022/09/05 01:36:20;;;;;;;1.05;0.77;;;17.60;99.50;;;;;;5022325;28;20053;-84
2022/09/05 01:38:54;;;;;;;3.15;0.90;;;17.60;99.60;;;;;;5050317;28;20078;-84
2022/09/05 01:41:29;;;;;;;1.30;0.80;;;17.50;99.80;;;;;;5051999;28;20033;-84
2022/09/05 01:44:01;;;;;;;1.73;0.77;;;17.50;99.90;;;;;;5046559;28;20482;-84
2022/09/05 01:46:57;;;;;;;1.48;1.00;;;17.40;99.80;;;;;;5051654;28;20080;-84
2022/09/05 01:49:32;;;;;;;1.58;0.80;;;17.40;99.90;;;;;;5046086;28;20083;-83
2022/09/05 01:52:23;;;;;;;1.00;0.68;;;17.40;99.90;;;;;;5040706;28;20489;-83
2022/09/05 01:54:55;;;;;;;1.58;0.93;;;17.30;99.90;;;;;;5049444;28;20135;-84
2022/09/05 01:57:33;;;;;;;2.65;1.10;;;17.30;99.90;;;;;;5042483;28;20044;-84
2022/09/05 02:00:21;;;;;;;1.60;0.85;;;17.20;99.90;;;;;;5048542;28;20040;-84
2022/09/05 02:03:18;;;;;;;1.50;1.00;;;17.20;99.90;;;;;;5050106;28;20430;-84
2022/09/05 02:06:08;;;;;;;0.93;0.77;;;17.10;99.90;;;;;;5049174;28;20041;-83
2022/09/05 02:09:04;;;;;;;1.55;0.70;;;17.10;99.90;;;;;;5046028;28;20042;-84
2022/09/05 02:11:54;;;;;;;2.42;1.10;;;17.10;99.90;;;;;;5053752;28;20812;-83
2022/09/05 02:14:19;;;;;;;1.92;1.05;;;17.00;99.90;;;;;;5062207;28;20081;-84
2022/09/05 02:16:46;;;;;;;1.60;1.00;;;17.00;99.90;;;;;;5054736;28;20440;-84
2022/09/05 02:19:18;;;;;;;2.13;0.82;;;16.90;99.90;;;;;;5038183;28;20073;-84
2022/09/05 02:21:53;;;;;;;1.83;0.80;;;16.90;99.90;;;;;;5054922;28;20457;-83
2022/09/05 02:24:40;;;;;;;2.03;0.80;;;16.80;99.90;;;;;;5056391;28;20043;-83
2022/09/05 02:27:17;;;;;;;1.20;0.90;;;16.80;99.90;;;;;;5049949;28;20116;-83
2022/09/05 02:30:07;;;;;;;0.88;0.73;;;16.80;99.90;;;;;;5037504;28;20393;-84
2022/09/05 02:32:35;;;;;;;1.38;1.00;;;16.70;99.90;;;;;;5044729;28;20115;-83
2022/09/05 02:35:30;;;;;;;1.90;1.20;;;16.60;99.90;;;;;;5054509;28;20479;-84
2022/09/05 02:38:01;;;;;;;2.13;1.48;;;16.60;99.90;;;;;;5054455;28;20130;-84
2022/09/05 02:40:35;;;;;;;1.50;1.00;;;16.30;99.90;;;;;;5054227;28;20060;-83
2022/09/05 02:43:14;;;;;;;1.63;1.40;;;16.40;99.90;;;;;;5053948;28;20060;-83
2022/09/05 02:45:46;;;;;;;2.17;1.45;;;16.40;99.90;;;;;;5053964;28;20138;-83
2022/09/05 02:48:17;;;;;;;2.17;1.50;;;16.30;99.90;;;;;;5046334;28;20041;-83
2022/09/05 02:51:07;;;;;;;1.77;1.42;;;16.40;99.90;;;;;;5053857;28;20033;-83
2022/09/05 02:53:35;;;;;;;2.13;1.50;;;16.20;99.90;;;;;;5038651;28;20041;-83
2022/09/05 02:56:33;;;;;;;1.63;1.10;;;16.20;99.90;;;;;;5043578;28;20084;-83
2022/09/05 02:59:26;;;;;;;1.73;1.33;;;16.10;99.90;;;;;;5003341;28;20096;-83
2022/09/05 03:02:01;;;;;;;1.42;1.15;;;16.10;99.90;;;;;;5012248;28;20056;-83
2022/09/05 03:04:31;;;;;;;1.80;1.30;;;16.00;99.90;;;;;;4998823;28;20033;-83
2022/09/05 03:07:31;;;;;;;1.55;1.02;;;16.00;99.90;;;;;;5024122;28;20462;-83
2022/09/05 03:10:02;;;;;;;2.35;1.40;;;16.00;99.90;;;;;;4938248;29;20429;-83
2022/09/05 03:12:42;;;;;;;1.25;1.00;;;15.90;99.90;;;;;;4960999;28;20059;-82
2022/09/05 03:15:16;;;;;;;1.80;1.23;;;15.90;99.90;;;;;;4957859;28;20051;-83
2022/09/05 03:17:59;;;;;;;1.88;1.10;;;15.90;99.90;;;;;;4954791;28;20047;-83
2022/09/05 03:20:34;;;;;;;2.05;1.02;;;15.90;99.90;;;;;;4939684;28;20164;-83
2022/09/05 03:23:36;;;;;;;2.03;1.25;;;15.80;99.90;;;;;;4954005;28;20574;-83
2022/09/05 03:26:25;;;;;;;3.95;1.20;;;15.80;99.90;;;;;;4953905;28;20559;-83
2022/09/05 03:29:00;;;;;;;2.05;1.40;;;15.80;99.90;;;;;;4946249;28;20775;-83
2022/09/05 03:31:31;;;;;;;2.20;1.23;;;15.70;99.90;;;;;;4938172;29;20055;-83
2022/09/05 03:34:32;;;;;;;1.92;1.00;;;15.60;99.90;;;;;;4935060;28;20047;-84
2022/09/05 03:37:07;;;;;;;1.75;1.27;;;15.60;99.90;;;;;;4873040;29;20088;-84
2022/09/05 03:39:58;;;;;;;1.02;0.82;;;15.60;99.90;;;;;;4888643;29;20537;-83
2022/09/05 03:42:51;;;;;;;1.90;1.30;;;15.60;99.90;;;;;;4868682;29;20108;-83
2022/09/05 03:45:44;;;;;;;1.88;1.13;;;15.50;99.90;;;;;;4866870;29;20064;-83
2022/09/05 03:48:24;;;;;;;1.25;0.95;;;15.50;99.90;;;;;;4974931;28;20046;-83
2022/09/05 03:51:07;;;;;;;2.35;1.00;;;15.50;99.90;;;;;;4978764;28;20039;-82
2022/09/05 03:53:36;;;;;;;1.63;1.20;;;15.50;99.90;;;;;;4971841;28;20070;-83
2022/09/05 03:56:13;;;;;;;2.05;1.08;;;15.50;99.90;;;;;;4971922;28;20082;-82
2022/09/05 03:58:47;;;;;;;1.42;0.90;;;15.40;99.90;;;;;;4977373;28;20050;-83
2022/09/05 04:01:25;;;;;;;2.13;1.20;;;15.40;99.90;;;;;;4971763;28;20051;-83
2022/09/05 04:03:56;;;;;;;2.30;1.20;;;15.40;99.90;;;;;;4972196;28;20094;-83
2022/09/05 04:06:21;;;;;;;4.07;1.20;;;15.40;99.90;;;;;;4955354;28;20051;-83
2022/09/05 04:09:22;;;;;;;2.00;1.10;;;15.30;99.90;;;;;;4972149;28;20039;-84
2022/09/05 04:11:56;;;;;;;2.67;1.20;;;15.30;99.90;;;;;;4966474;28;20167;-84
2022/09/05 04:14:41;;;;;;;1.73;1.17;;;15.20;99.90;;;;;;5031775;28;20060;-84
2022/09/05 04:17:25;;;;;;;2.45;1.20;;;15.30;99.90;;;;;;5051773;28;20489;-83
2022/09/05 04:20:01;;;;;;;2.15;1.13;;;15.30;99.90;;;;;;5046401;28;20119;-83
2022/09/05 04:22:37;;;;;;;3.22;1.30;;;15.20;99.90;;;;;;5042061;28;20048;-83
2022/09/05 04:25:14;;;;;;;2.13;1.20;;;15.30;99.90;;;;;;5051710;28;20041;-83
2022/09/05 04:28:12;;;;;;;2.10;1.40;;;15.10;99.90;;;;;;5034115;28;20091;-84
2022/09/05 04:30:59;;;;;;;2.00;1.30;;;15.10;99.90;;;;;;5011349;28;20096;-83
2022/09/05 04:33:49;;;;;;;1.92;1.20;;;15.00;99.90;;;;;;5018607;28;20050;-84
2022/09/05 04:36:31;;;;;;;2.15;1.00;;;15.10;99.90;;;;;;5009315;28;20058;-83
2022/09/05 04:39:16;;;;;;;2.10;1.30;;;15.10;99.90;;;;;;5016748;28;20046;-83
2022/09/05 04:41:59;;;;;;;1.70;1.17;;;15.00;99.90;;;;;;5019142;28;20046;-83
2022/09/05 04:44:45;;;;;;;1.50;1.00;;;15.00;99.90;;;;;;5013401;28;20573;-84
2022/09/05 04:47:21;;;;;;;1.40;1.00;;;15.00;99.90;;;;;;4974546;28;20042;-83
2022/09/05 04:49:59;;;;;;;2.17;1.10;;;15.00;99.90;;;;;;4990832;28;20042;-83
2022/09/05 04:53:09;;;;;;;1.77;1.10;;;15.00;99.90;;;;;;4990391;28;20049;-83
2022/09/05 04:55:46;;;;;;;1.95;1.20;;;15.00;99.90;;;;;;4951606;29;20047;-82
2022/09/05 04:58:20;;;;;;;1.52;1.00;;;14.90;99.90;;;;;;4959205;28;20058;-83
2022/09/05 05:01:33;;;;;;;2.20;1.20;;;14.90;99.90;;;;;;4951813;29;20075;-83
2022/09/05 05:04:15;;;;;;;2.50;1.20;;;14.90;99.90;;;;;;4903783;29;20509;-82
2022/09/05 05:07:03;;;;;;;1.67;1.10;;;14.90;99.90;;;;;;4903570;29;20441;-83
2022/09/05 05:09:41;;;;;;;1.58;1.00;;;14.90;99.90;;;;;;4873900;29;20052;-83
2022/09/05 05:12:17;;;;;;;3.28;1.30;;;14.90;99.90;;;;;;4853430;29;20423;-83
2022/09/05 05:14:56;;;;;;;1.35;1.10;;;14.90;99.90;;;;;;4869992;29;20068;-82
2022/09/05 05:17:28;;;;;;;1.55;1.30;;;14.90;99.90;;;;;;4857149;29;20147;-82
2022/09/05 05:20:31;;;;;;;1.50;1.10;;;14.90;99.90;;;;;;4875781;29;20475;-84
2022/09/05 05:23:02;;;;;;;1.30;1.00;;;14.80;99.90;;;;;;4856501;29;20489;-83
2022/09/05 05:25:31;;;;;;;1.15;0.80;;;14.90;99.90;;;;;;4874414;29;20061;-82
2022/09/05 05:28:10;;;;;;;1.92;0.98;;;14.80;99.90;;;;;;4876268;29;20045;-83
2022/09/05 05:30:38;;;;;;;1.75;1.10;;;14.90;99.90;;;;;;4895876;29;20476;-84
2022/09/05 05:33:27;;;;;;;1.95;1.27;;;14.90;99.90;;;;;;4935176;29;20062;-84
2022/09/05 05:35:58;;;;;;;2.08;0.95;;;14.90;99.90;;;;;;4914174;29;20094;-83
2022/09/05 05:38:44;;;;;;;3.00;1.20;;;14.90;99.90;;;;;;4936217;29;20051;-82
2022/09/05 05:41:39;;;;;;;1.50;1.10;;;14.90;99.90;;;;;;4976236;28;20120;-83
2022/09/05 05:44:13;;;;;;;2.83;0.90;;;14.90;99.90;;;;;;4988421;28;20056;-83
2022/09/05 05:46:44;;;;;;;1.27;1.00;;;15.00;99.90;;;;;;4999412;28;20046;-83
2022/09/05 05:49:42;;;;;;;1.35;0.90;;;15.00;99.90;;;;;;4993910;28;20433;-83
2022/09/05 05:52:55;;;;;;;1.70;1.00;;;15.00;99.90;;;;;;4992798;28;20082;-84
2022/09/05 05:55:44;;;;;;;1.02;0.80;;;15.10;99.90;;;;;;4961667;28;20066;-83
2022/09/05 05:58:40;;;;;;;1.33;1.00;;;15.20;99.90;;;;;;4934099;28;20058;-82
2022/09/05 06:01:43;;;;;;;1.33;0.70;;;15.20;99.90;;;;;;4973956;28;20106;-83
2022/09/05 06:04:32;;;;;;;0.88;0.75;;;15.30;99.90;;;;;;4967192;28;20047;-83
2022/09/05 06:07:07;;;;;;;1.98;0.65;;;15.40;99.90;;;;;;4974070;28;20611;-83
2022/09/05 06:09:45;;;;;;;1.10;0.77;;;15.50;99.90;;;;;;4980929;28;20046;-83
2022/09/05 06:12:47;;;;;;;1.00;0.70;;;15.60;99.90;;;;;;4967708;28;20734;-83
2022/09/05 06:15:24;;;;;;;1.58;0.60;;;15.70;99.90;;;;;;4974881;28;20043;-88
2022/09/05 06:18:08;;;;;;;0.85;0.73;;;15.90;99.90;;;;;;4980522;28;20482;-88
2022/09/05 06:21:04;;;;;;;0.98;0.63;;;15.90;99.90;;;;;;4965216;28;20499;-88
2022/09/05 06:23:53;;;;;;;3.00;1.10;;;16.10;99.90;;;;;;4957031;28;20122;-88
2022/09/05 06:26:31;;;;;;;2.05;0.80;;;16.20;99.90;;;;;;4975219;28;20094;-94
2022/09/05 06:41:19;;;;;;;1.70;0.90;;;17.00;99.90;;;;;;5064933;22;20052;-87
2022/09/05 06:51:56;;;;;;;3.17;1.20;;;17.80;99.90;;;;;;5053206;28;20204;-88
2022/09/05 06:54:45;;;;;;;1.38;1.00;;;17.80;99.90;;;;;;5022065;28;20050;-87
2022/09/05 06:57:43;;;;;;;1.08;0.90;;;17.90;99.90;;;;;;5033637;28;20071;-87
2022/09/05 07:00:30;;;;;;;2.78;1.02;;;18.10;99.90;;;;;;5069295;28;20041;-88
2022/09/05 07:09:29;;;;;;;0.95;0.85;;;18.50;99.90;;;;;;5045271;23;20057;-84
2022/09/05 07:12:53;;;;;;;1.35;0.90;;;18.70;99.90;;;;;;4947147;29;20047;-86
2022/09/05 07:19:17;;;;;;;2.25;0.90;;;19.10;99.90;;;;;;4931286;29;20579;-86
2022/09/05 07:21:54;;;;;;;1.40;0.90;;;19.10;99.90;;;;;;4875197;29;20139;-90
2022/09/05 07:24:26;;;;;;;2.97;1.35;;;19.20;99.90;;;;;;4885348;29;20052;-90
2022/09/05 07:26:55;;;;;;;1.52;1.00;;;19.30;99.90;;;;;;4892013;29;20067;-93
2022/09/05 07:33:03;;;;;;;1.40;0.95;;;19.70;99.90;;;;;;4899019;29;20094;-87
2022/09/05 07:35:37;;;;;;;1.58;1.20;;;19.80;99.90;;;;;;4899012;29;20099;-92
2022/09/05 07:38:12;;;;;;;1.50;1.02;;;20.00;99.90;;;;;;4882655;29;20577;-91
2022/09/05 07:40:51;;;;;;;2.85;1.25;;;20.10;99.90;;;;;;4898370;29;20053;-92
2022/09/05 07:43:26;;;;;;;2.28;1.50;;;20.30;99.90;;;;;;4882090;29;20134;-93
2022/09/05 07:46:01;;;;;;;1.50;1.00;;;20.10;99.90;;;;;;4897877;29;20060;-91
2022/09/05 07:48:31;;;;;;;2.05;1.05;;;20.50;99.90;;;;;;4888494;29;20056;-88
2022/09/05 07:51:00;;;;;;;2.15;1.08;;;20.60;99.90;;;;;;4921134;29;20456;-88
2022/09/05 07:53:27;;;;;;;2.95;0.90;;;20.70;99.90;;;;;;4901058;29;20056;-92
2022/09/05 07:55:57;;;;;;;2.42;0.98;;;20.90;99.90;;;;;;4946258;29;20058;-93
2022/09/05 07:58:49;;;;;;;4.65;0.90;;;21.10;99.90;;;;;;4980826;28;20080;-93
2022/09/05 08:01:18;;;;;;;2.45;0.80;;;21.30;99.90;;;;;;5014338;28;20045;-85
2022/09/05 08:03:43;;;;;;;1.60;0.80;;;21.40;99.80;;;;;;5012874;28;20049;-86
2022/09/05 08:06:27;;;;;;;1.88;1.10;;;21.50;99.60;;;;;;5014107;28;20540;-86
2022/09/05 08:09:03;;;;;;;2.25;0.93;;;21.70;99.90;;;;;;5030473;28;20056;-86
2022/09/05 08:11:32;;;;;;;1.67;0.90;;;21.80;99.40;;;;;;5055565;28;20477;-85
2022/09/05 08:14:23;;;;;;;1.60;1.15;;;22.00;99.00;;;;;;5056551;28;20045;-86
2022/09/05 08:16:49;;;;;;;1.20;1.00;;;22.20;99.50;;;;;;5043899;28;20076;-82
2022/09/05 08:19:48;;;;;;;3.55;1.10;;;22.30;99.30;;;;;;5053459;28;20072;-84
2022/09/05 08:22:20;;;;;;;1.88;1.20;;;22.50;98.90;;;;;;5053230;28;20106;-85
2022/09/05 08:25:01;;;;;;;1.55;0.90;;;22.80;98.60;;;;;;5053348;28;20047;-84
2022/09/05 08:27:35;;;;;;;1.55;0.90;;;23.00;98.30;;;;;;5052511;28;20131;-82
2022/09/05 08:30:06;;;;;;;1.27;1.00;;;23.20;98.30;;;;;;5052780;28;20045;-83
2022/09/05 08:32:48;;;;;;;1.70;0.90;;;23.20;97.50;;;;;;5053126;28;20396;-82
2022/09/05 08:35:24;;;;;;;1.88;1.00;;;23.30;97.60;;;;;;5053191;28;20064;-83
2022/09/05 08:37:51;;;;;;;1.77;1.30;;;23.40;97.00;;;;;;5052926;28;20115;-83
2022/09/05 08:40:28;;;;;;;2.05;1.10;;;23.40;97.20;;;;;;5053159;28;20037;-82
2022/09/05 08:43:23;;;;;;;1.25;0.90;;;23.50;97.70;;;;;;5053069;28;20103;-82
2022/09/05 08:46:19;;;;;;;1.10;1.00;;;23.70;97.60;;;;;;5051102;28;20119;-84
2022/09/05 08:49:02;;;;;;;6.57;1.05;;;23.90;97.00;;;;;;5022398;28;20060;-83
2022/09/05 08:51:41;;;;;;;3.40;1.52;;;24.00;96.60;;;;;;5052923;28;20041;-84
2022/09/05 08:54:45;;;;;;;1.52;1.00;;;24.10;96.30;;;;;;5035230;28;20037;-83
2022/09/05 08:57:17;;;;;;;2.60;0.85;;;24.20;96.20;;;;;;4969826;28;20058;-84
2022/09/05 09:00:05;;;;;;;1.92;1.30;;;24.30;95.80;;;;;;4955749;28;20049;-83
2022/09/05 09:02:55;;;;;;;2.08;1.23;;;24.40;95.50;;;;;;4971693;28;20089;-82
2022/09/05 09:05:30;;;;;;;0.80;0.80;;;24.50;95.30;;;;;;4971905;28;20110;-82
2022/09/05 09:08:01;;;;;;;1.27;0.90;;;24.60;95.40;;;;;;4971622;28;20059;-82
2022/09/05 09:10:56;;;;;;;1.75;1.20;;;24.70;94.90;;;;;;4971560;28;20051;-82
2022/09/05 09:13:24;;;;;;;1.45;1.08;;;24.90;95.30;;;;;;4971739;28;20062;-84
2022/09/05 09:16:09;;;;;;;2.13;1.10;;;25.00;94.50;;;;;;4971621;28;20546;-84
2022/09/05 09:19:00;;;;;;;1.63;1.08;;;25.10;94.80;;;;;;4955813;28;20416;-83
2022/09/05 09:21:31;;;;;;;1.60;1.00;;;25.30;94.40;;;;;;4971207;28;20051;-85
2022/09/05 09:24:40;;;;;;;1.58;1.00;;;25.40;93.30;;;;;;4951284;28;20050;-84
2022/09/05 09:27:26;;;;;;;1.48;1.15;;;25.50;93.10;;;;;;4968398;28;20098;-84
2022/09/05 09:29:57;;;;;;;1.00;0.80;;;25.50;94.00;;;;;;4971186;28;20054;-85
2022/09/05 09:32:23;;;;;;;1.70;1.10;;;25.70;94.40;;;;;;4970990;28;20082;-85
2022/09/05 09:35:04;;;;;;;1.63;1.10;;;25.80;93.00;;;;;;5049685;28;20041;-85
2022/09/05 09:37:49;;;;;;;2.03;0.88;;;26.00;93.20;;;;;;5028881;28;20428;-86
2022/09/05 09:40:21;;;;;;;1.27;0.90;;;26.10;93.20;;;;;;5039746;28;20052;-85
2022/09/05 09:43:13;;;;;;;2.92;1.42;;;26.30;92.30;;;;;;5030947;28;20072;-80
2022/09/05 09:45:57;;;;;;;2.80;1.67;;;26.40;92.80;;;;;;5040825;28;20044;-84
2022/09/05 09:48:41;;;;;;;1.67;1.10;;;26.50;92.70;;;;;;5046645;28;20468;-82
2022/09/05 09:51:29;;;;;;;1.98;1.20;;;26.70;93.00;;;;;;5046552;28;20045;-80
2022/09/05 09:54:07;;;;;;;2.08;0.98;;;26.80;92.70;;;;;;5037264;28;20065;-82
2022/09/05 09:57:03;;;;;;;1.95;1.52;;;27.00;91.70;;;;;;5046918;28;20045;-81
2022/09/05 09:59:58;;;;;;;2.15;1.15;;;26.90;91.90;;;;;;5044112;28;20046;-81
2022/09/05 10:02:33;;;;;;;2.20;1.20;;;27.10;92.50;;;;;;5047448;28;20059;-82
2022/09/05 10:05:36;;;;;;;1.80;1.00;;;27.20;91.90;;;;;;5046950;28;20513;-80
2022/09/05 10:08:30;;;;;;;1.38;1.00;;;27.30;91.60;;;;;;5034592;28;20457;-81
2022/09/05 10:11:16;;;;;;;2.88;1.35;;;27.30;91.30;;;;;;5025875;28;20045;-82
2022/09/05 10:14:15;;;;;;;3.83;1.10;;;27.50;91.70;;;;;;5023979;28;20049;-83
2022/09/05 10:16:53;;;;;;;2.05;1.40;;;27.70;90.90;;;;;;5034962;28;20045;-82
2022/09/05 10:20:13;;;;;;;2.65;1.20;;;27.70;90.00;;;;;;5034623;28;20053;-82
2022/09/05 10:23:11;;;;;;;4.68;1.10;;;27.80;90.00;;;;;;4948318;28;20106;-85
2022/09/05 10:26:14;;;;;;;2.50;0.98;;;27.80;90.60;;;;;;4965897;28;20134;-83
2022/09/05 10:29:10;;;;;;;2.22;1.00;;;27.90;90.30;;;;;;4962766;28;20055;-83
2022/09/05 10:31:47;;;;;;;3.25;1.20;;;28.00;90.20;;;;;;4962755;28;20062;-87
2022/09/05 10:34:21;;;;;;;3.53;1.10;;;28.20;90.00;;;;;;4964469;28;20065;-86
2022/09/05 10:36:57;;;;;;;2.55;1.13;;;28.30;89.80;;;;;;4950335;28;20093;-88
2022/09/05 10:39:29;;;;;;;1.75;0.77;;;28.40;90.20;;;;;;4951365;28;20047;-84
2022/09/05 10:42:03;;;;;;;2.00;0.82;;;28.50;89.40;;;;;;4952172;29;20051;-86
2022/09/05 10:44:45;;;;;;;2.47;0.77;;;28.70;88.90;;;;;;4949294;28;20047;-86
2022/09/05 10:47:19;;;;;;;2.25;0.70;;;28.90;88.30;;;;;;4946961;28;20133;-86
2022/09/05 10:49:49;;;;;;;0.73;0.57;;;29.10;87.70;;;;;;4943816;28;20178;-88
2022/09/05 10:59:03;;;;;;;3.90;1.20;;;29.70;88.20;;;;;;5090045;23;19959;-86
2022/09/05 11:01:34;;;;;;;2.15;0.80;;;29.80;86.50;;;;;;5013480;28;20060;-86
2022/09/05 11:04:12;;;;;;;1.35;0.80;;;29.90;85.40;;;;;;5013609;28;20088;-86
2022/09/05 11:06:44;;;;;;;2.35;1.02;;;30.00;86.00;;;;;;5002444;28;20103;-88
2022/09/05 11:11:44;;;;;;;1.23;0.70;;;30.10;84.50;;;;;;5038669;22;20069;-86
2022/09/05 11:14:48;;;;;;;0.80;0.60;;;30.30;85.20;;;;;;5017530;28;20100;-85
2022/09/05 11:17:26;;;;;;;1.30;0.70;;;30.30;82.80;;;;;;5011408;28;20528;-87
2022/09/05 11:20:24;;;;;;;1.05;0.73;;;30.40;83.80;;;;;;5034340;28;20045;-85
2022/09/05 11:22:56;;;;;;;1.25;0.80;;;30.60;83.10;;;;;;5034580;28;20042;-86
2022/09/05 11:25:26;;;;;;;1.00;0.60;;;30.70;83.10;;;;;;5034493;28;20489;-86
2022/09/05 11:27:54;;;;;;;1.23;0.70;;;30.70;82.20;;;;;;5033923;28;20603;-88
2022/09/05 11:30:22;;;;;;;2.78;0.73;;;30.90;81.40;;;;;;5034862;28;20045;-86
2022/09/05 11:33:25;;;;;;;1.27;0.73;;;30.90;81.00;;;;;;5037045;28;20049;-85
2022/09/05 11:35:58;;;;;;;2.42;0.75;;;31.00;79.30;;;;;;5036887;28;20064;-84
2022/09/05 11:39:01;;;;;;;0.90;0.70;;;30.80;79.10;;;;;;5020745;28;20469;-84
2022/09/05 11:42:04;;;;;;;3.63;0.80;;;30.80;79.40;;;;;;4969749;28;20043;-89
2022/09/05 11:48:54;;;;;;;1.38;0.80;;;31.00;79.70;;;;;;4974770;28;20469;-85
2022/09/05 11:51:19;;;;;;;1.38;0.90;;;31.10;78.50;;;;;;4953974;29;20523;-83
2022/09/05 11:54:05;;;;;;;1.13;0.70;;;31.10;79.10;;;;;;4942433;29;20059;-83
2022/09/05 11:56:59;;;;;;;0.68;0.55;;;31.20;79.00;;;;;;4953492;28;20432;-84
2022/09/05 12:03:40;;;;;;;0.90;0.60;;;31.40;77.50;;;;;;4959675;29;20041;-84
2022/09/05 12:06:33;;;;;;;0.90;0.57;;;31.40;78.30;;;;;;4929183;29;20060;-84
2022/09/05 12:09:19;;;;;;;0.77;0.70;;;31.60;77.30;;;;;;4945074;29;20558;-85
2022/09/05 12:12:16;;;;;;;1.88;0.80;;;31.50;77.30;;;;;;4933834;29;20063;-87
2022/09/05 12:15:44;;;;;;;1.27;0.60;;;31.50;76.70;;;;;;4936605;29;20059;-85
2022/09/05 12:18:42;;;;;;;2.50;0.60;;;31.70;76.90;;;;;;4904882;29;20421;-85
2022/09/05 12:21:27;;;;;;;1.45;0.60;;;31.80;78.00;;;;;;4914619;29;20091;-85
2022/09/05 12:24:08;;;;;;;1.05;0.70;;;32.00;77.40;;;;;;4902763;29;20059;-91
2022/09/05 12:27:14;;;;;;;;;;;;;;;;;;;;;
2022/09/05 12:37:36;;;;;;;5.07;0.80;;;32.60;74.30;;;;;;4908201;29;20842;-87
2022/09/05 12:40:08;;;;;;;1.88;0.90;;;32.60;73.70;;;;;;4909219;29;20060;-87
2022/09/05 12:43:00;;;;;;;1.75;0.88;;;32.60;73.90;;;;;;4898613;29;20467;-85
2022/09/05 12:45:32;;;;;;;1.63;0.90;;;32.40;73.10;;;;;;4914374;29;20137;-86
2022/09/05 12:48:20;;;;;;;1.38;0.80;;;32.50;73.50;;;;;;4910145;29;20123;-88
2022/09/05 12:51:22;;;;;;;3.33;0.88;;;32.40;72.90;;;;;;4894717;29;20075;-89
2022/09/05 12:54:00;;;;;;;2.88;0.90;;;32.30;73.40;;;;;;4915226;29;20056;-88
2022/09/05 12:56:49;;;;;;;1.88;0.88;;;32.30;74.30;;;;;;4932159;29;20039;-88
2022/09/05 12:59:24;;;;;;;1.40;0.75;;;32.10;73.10;;;;;;4925520;29;20138;-88
2022/09/05 13:02:14;;;;;;;1.40;0.70;;;32.20;73.90;;;;;;4928571;29;20039;-90
2022/09/05 13:04:57;;;;;;;1.65;0.73;;;32.40;74.30;;;;;;4932546;29;20052;-90
2022/09/05 13:07:49;;;;;;;2.30;0.70;;;32.50;74.50;;;;;;4998784;28;20140;-87
2022/09/05 13:10:36;;;;;;;1.52;0.68;;;32.70;73.50;;;;;;5015107;28;20080;-90
2022/09/05 13:13:12;;;;;;;0.93;0.80;;;32.80;73.40;;;;;;5031873;28;20128;-87
2022/09/05 13:15:47;;;;;;;3.17;0.70;;;32.90;74.00;;;;;;5025782;28;20061;-87
2022/09/05 13:18:14;;;;;;;;;;;33.00;71.90;;;;;;5025046;28;20149;-89
2022/09/05 13:20:50;;;;;;;1.67;0.90;;;33.10;72.20;;;;;;5013910;28;20066;-88
2022/09/05 13:23:31;;;;;;;1.58;0.90;;;33.10;73.00;;;;;;5005879;28;20049;-88
2022/09/05 13:26:24;;;;;;;1.38;1.00;;;33.00;72.50;;;;;;5011962;28;20088;-89
2022/09/05 13:28:54;;;;;;;2.42;0.70;;;32.60;71.20;;;;;;5023395;28;20045;-88
2022/09/05 13:31:52;;;;;;;1.38;0.80;;;33.20;71.50;;;;;;5018948;28;20073;-89
2022/09/05 13:35:13;;;;;;;0.63;0.60;;;33.30;70.30;;;;;;5038527;23;20172;-88
2022/09/05 13:38:09;;;;;;;0.98;0.75;;;33.20;71.60;;;;;;4954669;28;20051;-89
2022/09/05 13:44:33;;;;;;;1.70;0.55;;;33.00;71.50;;;;;;5104922;22;20036;-89
2022/09/05 13:47:12;;;;;;;1.45;0.80;;;33.20;71.20;;;;;;5010036;28;20143;-90
2022/09/05 13:50:28;;;;;;;;;;;;;;;;;;;;;
2022/09/05 14:24:11;;;;;;;1.17;0.68;;;33.00;67.60;;;;;;5027977;28;20052;-88
2022/09/05 14:26:49;;;;;;;1.20;0.93;;;32.90;68.90;;;;;;4982307;23;20113;-87
2022/09/05 14:29:21;;;;;;;1.38;0.80;;;32.60;69.30;;;;;;5048664;28;20044;-88
2022/09/05 14:32:06;;;;;;;1.13;0.70;;;32.50;69.60;;;;;;5056123;28;20042;-88
2022/09/05 14:35:00;;;;;;;2.70;0.63;;;32.50;69.90;;;;;;5044427;28;20048;-87
2022/09/05 14:37:44;;;;;;;0.85;0.65;;;32.30;69.50;;;;;;5050296;28;20507;-86
2022/09/05 14:40:50;;;;;;;0.95;0.70;;;32.20;70.80;;;;;;5079403;28;20424;-88
2022/09/05 14:43:54;;;;;;;;;;;;;;;;;;;;;
2022/09/05 14:47:20;;;;;;;;;;;;;;;;;;;;;
2022/09/05 14:58:29;;;;;;;3.42;0.70;;;32.10;69.90;;;;;;4950420;28;20578;-90
2022/09/05 15:01:24;;;;;;;;;;;;;;;;;;;;;
2022/09/05 15:03:54;;;;;;;2.05;0.70;;;32.00;69.70;;;;;;5006341;23;20425;-90
2022/09/05 15:06:22;;;;;;;0.85;0.77;;;31.70;69.80;;;;;;5005482;28;20767;-88
2022/09/05 15:09:00;;;;;;;1.33;0.75;;;31.50;70.80;;;;;;5006595;28;20054;-91
2022/09/05 15:11:28;;;;;;;1.13;0.70;;;31.30;71.50;;;;;;5008793;28;20366;-89
2022/09/05 15:14:03;;;;;;;1.60;0.80;;;31.20;72.50;;;;;;5008836;28;20548;-92
2022/09/05 15:16:33;;;;;;;2.38;0.63;;;31.10;72.70;;;;;;5006422;28;20057;-88
2022/09/05 15:19:00;;;;;;;1.05;0.60;;;31.10;72.60;;;;;;5013803;28;20037;-90
2022/09/05 15:21:36;;;;;;;1.08;0.60;;;30.90;73.40;;;;;;5011887;28;20046;-90
2022/09/05 15:24:19;;;;;;;1.10;0.60;;;30.60;72.90;;;;;;5008028;28;20053;-90
2022/09/05 15:27:23;;;;;;;;;;;;;;;;;;;;;
2022/09/05 15:58:58;;;;;;;0.82;0.60;;;29.20;77.60;;;;;;5500332;23;20122;-87
2022/09/05 16:09:29;;;;;;;1.67;0.60;;;28.80;77.90;;;;;;4859580;24;20054;-88
2022/09/05 16:20:26;;;;;;;2.10;0.80;;;28.40;79.10;;;;;;5169011;24;20063;-89
2022/09/05 16:23:11;;;;;;;;;;;;;;;;;;;;;
2022/09/05 16:49:48;;;;;;;;;;;;;;;;;;;;;
2022/09/05 16:53:21;;;;;;;1.20;0.80;;;27.10;82.60;;;;;;4690531;30;20422;-87
2022/09/05 16:56:24;;;;;;;1.92;0.80;;;27.10;83.20;;;;;;4767337;30;20588;-88
2022/09/05 17:16:57;;;;;;;1.52;1.00;;;26.40;85.50;;;;;;4788762;24;20353;-90
2022/09/05 17:19:51;;;;;;;2.00;0.90;;;26.30;86.00;;;;;;4745105;29;20129;-88
2022/09/05 17:22:34;;;;;;;;;;;;;;;;;;;;;
2022/09/05 17:25:44;;;;;;;1.73;0.95;;;26.10;87.10;;;;;;4773000;24;20051;-87
2022/09/05 17:28:49;;;;;;;2.30;0.98;;;25.90;86.70;;;;;;4786559;30;20528;-89
2022/09/05 17:31:33;;;;;;;1.85;0.95;;;25.70;87.20;;;;;;4781609;29;20077;-87
2022/09/05 17:34:40;;;;;;;2.65;0.90;;;25.70;87.60;;;;;;4777000;30;20057;-87